createdAt,value
2022-12-07T00:01:39.632Z,3.53
2022-12-07T00:04:09.075Z,3.42
2022-12-07T00:06:45.016Z,3.40
2022-12-07T00:09:16.139Z,3.72
2022-12-07T00:11:44.081Z,3.08
2022-12-07T00:14:15.995Z,3.53
2022-12-07T00:16:44.311Z,3.72
2022-12-07T00:19:13.928Z,3.38
2022-12-07T00:21:40.977Z,3.28
2022-12-07T00:24:08.130Z,3.35
2022-12-07T00:26:38.513Z,3.13
2022-12-07T00:29:16.535Z,3.47
2022-12-07T00:31:43.507Z,3.80
2022-12-07T00:34:16.310Z,3.28
2022-12-07T00:36:43.235Z,3.63
2022-12-07T00:39:10.096Z,3.63
2022-12-07T00:41:36.894Z,3.75
2022-12-07T00:44:03.954Z,3.90
2022-12-07T00:46:31.265Z,3.83
2022-12-07T00:48:58.214Z,3.83
2022-12-07T00:51:26.321Z,3.92
2022-12-07T00:53:53.977Z,3.30
2022-12-07T00:56:29.489Z,4.05
2022-12-07T00:59:02.251Z,3.85
2022-12-07T01:01:33.126Z,3.53
2022-12-07T01:04:02.238Z,3.97
2022-12-07T01:06:29.421Z,3.35
2022-12-07T01:08:56.679Z,3.50
2022-12-07T01:11:28.711Z,4.07
2022-12-07T01:13:57.655Z,2.60
2022-12-07T01:16:27.816Z,4.38
2022-12-07T01:18:56.612Z,4.00
2022-12-07T01:21:26.884Z,3.28
2022-12-07T01:23:53.975Z,3.63
2022-12-07T01:26:25.946Z,3.70
2022-12-07T01:28:55.819Z,4.00
2022-12-07T01:31:26.115Z,3.60
2022-12-07T01:33:57.473Z,3.60
2022-12-07T01:36:25.567Z,3.90
2022-12-07T01:38:57.702Z,3.90
2022-12-07T01:41:29.289Z,4.13
2022-12-07T01:44:20.222Z,4.35
2022-12-07T01:46:58.813Z,3.47
2022-12-07T01:49:28.334Z,3.50
2022-12-07T01:52:05.559Z,3.53
2022-12-07T01:54:33.883Z,3.70
2022-12-07T01:57:01.010Z,3.65
2022-12-07T01:59:28.570Z,3.95
2022-12-07T02:01:56.935Z,3.30
2022-12-07T02:04:24.551Z,3.70
2022-12-07T02:06:52.795Z,3.92
2022-12-07T02:09:19.618Z,4.15
2022-12-07T02:11:46.549Z,4.45
2022-12-07T02:14:13.426Z,4.05
2022-12-07T02:17:22.274Z,4.18
2022-12-07T02:20:16.352Z,4.10
2022-12-07T02:23:21.758Z,3.70
2022-12-07T02:26:21.991Z,3.90
2022-12-07T02:29:35.217Z,3.97
2022-12-07T02:32:16.406Z,4.70
2022-12-07T02:35:12.930Z,4.47
2022-12-07T02:37:51.474Z,4.45
2022-12-07T02:40:32.501Z,4.75
2022-12-07T02:43:15.518Z,4.53
2022-12-07T02:45:45.044Z,5.35
2022-12-07T02:48:14.993Z,5.20
2022-12-07T02:50:49.448Z,4.95
2022-12-07T02:53:38.434Z,5.28
2022-12-07T02:56:20.076Z,4.97
2022-12-07T02:59:13.325Z,4.60
2022-12-07T03:01:58.689Z,5.32
2022-12-07T03:04:50.214Z,5.45
2022-12-07T03:07:35.176Z,5.78
2022-12-07T03:10:49.516Z,5.18
2022-12-07T03:13:40.611Z,6.10
2022-12-07T03:16:17.617Z,6.57
2022-12-07T03:19:03.608Z,6.30
2022-12-07T03:21:58.194Z,6.63
2022-12-07T03:24:32.563Z,6.35
2022-12-07T03:27:31.997Z,6.18
2022-12-07T03:30:21.503Z,6.38
2022-12-07T03:33:19.843Z,6.35
2022-12-07T03:35:54.201Z,5.85
2022-12-07T03:38:23.343Z,6.22
2022-12-07T03:41:13.236Z,5.85
2022-12-07T03:43:41.899Z,5.50
2022-12-07T03:47:08.016Z,6.35
2022-12-07T03:49:56.344Z,5.78
2022-12-07T03:52:24.679Z,6.07
2022-12-07T03:54:59.623Z,6.15
2022-12-07T03:57:29.426Z,5.93
2022-12-07T03:59:58.208Z,6.20
2022-12-07T04:02:27.841Z,5.47
2022-12-07T04:04:55.478Z,5.35
2022-12-07T04:07:22.378Z,5.97
2022-12-07T04:09:49.296Z,5.82
2022-12-07T04:12:16.120Z,6.38
2022-12-07T04:14:42.882Z,6.00
2022-12-07T04:17:10.285Z,5.60
2022-12-07T04:19:37.129Z,7.18
2022-12-07T04:22:05.980Z,6.55
2022-12-07T04:24:34.346Z,6.82
2022-12-07T04:27:01.272Z,6.40
2022-12-07T04:29:28.371Z,7.80
2022-12-07T04:31:55.243Z,7.63
2022-12-07T04:34:22.153Z,7.15
2022-12-07T04:36:49.438Z,8.05
2022-12-07T04:39:26.901Z,7.20
2022-12-07T04:41:54.110Z,6.72
2022-12-07T04:44:21.955Z,8.15
2022-12-07T04:46:49.187Z,8.50
2022-12-07T04:49:17.049Z,8.10
2022-12-07T04:51:44.656Z,7.85
2022-12-07T04:54:12.900Z,8.57
2022-12-07T04:56:39.819Z,8.82
2022-12-07T04:59:07.015Z,9.18
2022-12-07T05:01:34.875Z,8.63
2022-12-07T05:04:01.765Z,7.65
2022-12-07T05:06:28.583Z,8.00
2022-12-07T05:08:55.426Z,9.07
2022-12-07T05:11:40.645Z,9.18
2022-12-07T05:14:21.942Z,9.20
2022-12-07T05:16:51.695Z,9.55
2022-12-07T05:19:20.141Z,9.90
2022-12-07T05:21:47.663Z,9.80
2022-12-07T05:24:16.616Z,9.23
2022-12-07T05:26:44.184Z,9.30
2022-12-07T05:29:16.914Z,9.45
2022-12-07T05:31:45.212Z,9.40
2022-12-07T05:34:12.792Z,9.68
2022-12-07T05:36:39.609Z,9.05
2022-12-07T05:39:07.007Z,9.80
2022-12-07T05:41:52.714Z,9.02
2022-12-07T05:44:19.685Z,9.05
2022-12-07T05:46:46.486Z,8.75
2022-12-07T05:49:13.293Z,9.65
2022-12-07T05:51:40.159Z,9.25
2022-12-07T05:54:06.983Z,9.55
2022-12-07T05:56:33.782Z,9.70
2022-12-07T05:59:18.926Z,10.30
2022-12-07T06:01:45.815Z,9.45
2022-12-07T06:04:12.643Z,7.53
2022-12-07T06:06:39.731Z,9.35
2022-12-07T06:09:06.879Z,9.55
2022-12-07T06:11:51.984Z,10.25
2022-12-07T06:14:18.868Z,9.85
2022-12-07T06:16:45.913Z,9.85
2022-12-07T06:19:12.906Z,9.38
2022-12-07T06:21:39.897Z,9.82
2022-12-07T06:24:07.023Z,9.02
2022-12-07T06:26:34.028Z,8.65
2022-12-07T06:29:00.786Z,10.05
2022-12-07T06:31:27.582Z,8.77
2022-12-07T06:34:00.168Z,9.77
2022-12-07T06:36:27.547Z,9.40
2022-12-07T06:38:54.707Z,9.13
2022-12-07T06:41:21.732Z,9.63
2022-12-07T06:43:54.194Z,10.25
2022-12-07T06:46:23.183Z,10.35
2022-12-07T06:48:50.174Z,9.18
2022-12-07T06:51:17.166Z,9.73
2022-12-07T06:53:43.982Z,9.43
2022-12-07T06:56:10.766Z,9.52
2022-12-07T06:58:37.784Z,9.30
2022-12-07T07:01:10.356Z,9.93
2022-12-07T07:03:37.195Z,11.40
2022-12-07T07:06:04.287Z,11.07
2022-12-07T07:08:31.813Z,10.52
2022-12-07T07:10:58.595Z,10.63
2022-12-07T07:13:25.469Z,10.38
2022-12-07T07:15:52.345Z,10.85
2022-12-07T07:18:19.138Z,10.95
2022-12-07T07:20:45.972Z,11.00
2022-12-07T07:23:13.508Z,11.38
2022-12-07T07:25:40.341Z,10.95
2022-12-07T07:28:07.125Z,11.15
2022-12-07T07:30:34.203Z,15.07
2022-12-07T07:33:03.479Z,13.20
2022-12-07T07:35:33.024Z,14.82
2022-12-07T07:38:00.099Z,13.50
2022-12-07T07:40:28.272Z,11.85
2022-12-07T07:42:55.362Z,11.07
2022-12-07T07:45:24.806Z,11.38
2022-12-07T07:47:52.092Z,11.50
2022-12-07T07:50:19.833Z,11.30
2022-12-07T07:52:46.994Z,11.10
2022-12-07T07:55:14.020Z,11.27
2022-12-07T07:57:41.729Z,10.93
2022-12-07T08:00:14.885Z,11.38
2022-12-07T08:02:43.887Z,12.70
2022-12-07T08:05:13.130Z,12.60
2022-12-07T08:07:40.445Z,12.18
2022-12-07T08:10:09.895Z,11.50
2022-12-07T08:13:01.450Z,12.30
2022-12-07T08:15:30.354Z,11.50
2022-12-07T08:17:57.204Z,12.18
2022-12-07T08:20:24.056Z,12.30
2022-12-07T08:22:50.887Z,13.23
2022-12-07T08:25:18.728Z,11.90
2022-12-07T08:27:45.581Z,13.45
2022-12-07T08:30:12.671Z,11.60
2022-12-07T08:32:39.686Z,12.80
2022-12-07T08:35:07.183Z,12.40
2022-12-07T08:37:34.108Z,11.85
2022-12-07T08:40:01.343Z,11.60
2022-12-07T08:42:30.776Z,9.45
2022-12-07T08:44:58.260Z,12.40
2022-12-07T08:47:26.306Z,12.82
2022-12-07T08:49:54.181Z,10.65
2022-12-07T08:52:21.046Z,11.48
2022-12-07T08:54:48.327Z,12.32
2022-12-07T08:57:15.252Z,12.77
2022-12-07T08:59:42.054Z,12.20
2022-12-07T09:02:09.094Z,12.23
2022-12-07T09:04:35.930Z,12.52
2022-12-07T09:07:02.933Z,11.27
2022-12-07T09:09:29.799Z,11.80
2022-12-07T09:11:56.584Z,12.65
2022-12-07T09:14:23.678Z,11.90
2022-12-07T09:16:50.507Z,12.18
2022-12-07T09:19:17.326Z,12.45
2022-12-07T09:21:44.314Z,13.10
2022-12-07T09:24:13.026Z,13.57
2022-12-07T09:26:41.332Z,13.57
2022-12-07T09:29:08.340Z,12.75
2022-12-07T09:31:38.311Z,9.57
2022-12-07T09:34:06.588Z,11.70
2022-12-07T09:36:33.845Z,11.85
2022-12-07T09:39:00.786Z,12.68
2022-12-07T09:41:30.669Z,11.63
2022-12-07T09:44:13.756Z,12.75
2022-12-07T09:46:43.387Z,13.20
2022-12-07T09:49:26.459Z,12.50
2022-12-07T09:52:25.368Z,13.18
2022-12-07T09:54:52.432Z,11.40
2022-12-07T09:57:31.413Z,12.07
2022-12-07T10:00:04.235Z,11.20
2022-12-07T10:02:48.009Z,11.80
2022-12-07T10:05:24.391Z,11.73
2022-12-07T10:07:51.866Z,11.23
2022-12-07T10:10:31.603Z,11.95
2022-12-07T10:13:09.493Z,12.85
2022-12-07T10:16:03.396Z,11.75
2022-12-07T10:18:42.482Z,11.70
2022-12-07T10:21:09.964Z,10.77
2022-12-07T10:23:39.688Z,10.93
2022-12-07T10:26:39.404Z,11.85
2022-12-07T10:29:34.250Z,10.73
2022-12-07T10:32:16.541Z,12.20
2022-12-07T10:34:48.808Z,8.73
2022-12-07T10:37:22.743Z,11.23
2022-12-07T10:39:58.047Z,11.30
2022-12-07T10:42:31.340Z,11.70
2022-12-07T10:45:13.834Z,10.48
2022-12-07T10:48:23.986Z,11.73
2022-12-07T10:51:01.218Z,9.80
2022-12-07T10:53:29.466Z,10.50
2022-12-07T10:56:21.826Z,11.82
2022-12-07T10:59:16.693Z,11.13
2022-12-07T11:02:22.033Z,10.35
2022-12-07T11:04:59.104Z,10.10
2022-12-07T11:08:10.832Z,13.10
2022-12-07T11:10:49.576Z,9.73
2022-12-07T11:13:40.863Z,9.75
2022-12-07T11:16:33.472Z,10.73
2022-12-07T11:19:34.926Z,9.17
2022-12-07T11:22:19.888Z,8.20
2022-12-07T11:25:21.047Z,10.13
2022-12-07T11:28:29.742Z,9.77
2022-12-07T11:31:46.461Z,9.90
2022-12-07T11:34:37.500Z,10.93
2022-12-07T11:37:13.584Z,10.23
2022-12-07T11:39:50.312Z,11.07
2022-12-07T11:42:22.295Z,11.20
2022-12-07T11:45:02.149Z,11.43
2022-12-07T11:47:39.723Z,10.20
2022-12-07T11:50:39.726Z,10.40
2022-12-07T11:53:09.553Z,11.10
2022-12-07T11:56:12.596Z,10.38
2022-12-07T11:58:54.662Z,11.02
2022-12-07T12:01:39.513Z,10.85
2022-12-07T12:04:12.402Z,10.30
2022-12-07T12:06:41.783Z,9.75
2022-12-07T12:15:22.459Z,9.80
2022-12-07T12:18:01.158Z,9.52
2022-12-07T12:20:32.172Z,8.57
2022-12-07T12:23:25.140Z,10.77
2022-12-07T12:26:00.318Z,9.15
2022-12-07T12:28:38.573Z,10.07
2022-12-07T12:31:18.406Z,10.77
2022-12-07T12:33:58.465Z,10.20
2022-12-07T12:36:33.936Z,9.15
2022-12-07T12:39:10.099Z,8.93
2022-12-07T12:41:40.244Z,10.25
2022-12-07T12:44:16.294Z,12.13
2022-12-07T12:46:59.865Z,10.52
2022-12-07T12:49:26.562Z,10.40
2022-12-07T12:52:15.391Z,11.15
2022-12-07T12:55:11.538Z,13.20
2022-12-07T12:57:39.287Z,10.85
2022-12-07T13:00:24.461Z,11.73
2022-12-07T13:02:59.980Z,9.32
2022-12-07T13:05:30.658Z,10.25
2022-12-07T13:08:01.383Z,11.70
2022-12-07T13:10:30.816Z,11.00
2022-12-07T13:13:13.503Z,10.20
2022-12-07T13:15:51.423Z,8.93
2022-12-07T13:18:33.137Z,9.30
2022-12-07T13:21:02.341Z,7.75
2022-12-07T13:23:47.389Z,9.63
2022-12-07T13:26:22.953Z,8.52
2022-12-07T13:28:54.076Z,10.38
2022-12-07T13:31:37.690Z,9.43
2022-12-07T13:34:32.127Z,10.05
2022-12-07T13:37:02.419Z,9.52
2022-12-07T13:39:29.816Z,9.48
2022-12-07T13:41:59.866Z,9.73
2022-12-07T13:44:28.819Z,9.40
2022-12-07T13:47:18.320Z,9.98
2022-12-07T13:49:55.461Z,12.02
2022-12-07T13:52:27.144Z,9.55
2022-12-07T13:55:03.361Z,9.95
2022-12-07T13:57:31.909Z,8.95
2022-12-07T13:59:59.752Z,10.48
2022-12-07T14:02:36.383Z,10.82
2022-12-07T14:05:23.516Z,11.32
2022-12-07T14:08:11.116Z,10.48
2022-12-07T14:10:40.646Z,8.82
2022-12-07T14:13:40.035Z,8.73
2022-12-07T14:16:34.688Z,8.82
2022-12-07T14:19:07.321Z,8.38
2022-12-07T14:21:35.690Z,9.10
2022-12-07T14:24:18.339Z,8.73
2022-12-07T14:26:50.869Z,8.75
2022-12-07T14:29:28.235Z,5.97
2022-12-07T14:31:56.213Z,7.60
2022-12-07T14:34:24.410Z,9.48
2022-12-07T14:36:51.710Z,9.27
2022-12-07T14:39:18.522Z,9.10
2022-12-07T14:41:51.574Z,8.98
2022-12-07T14:49:41.418Z,8.70
2022-12-07T14:55:26.559Z,8.95
2022-12-07T14:57:53.811Z,8.75
2022-12-07T15:00:23.073Z,10.98
2022-12-07T15:02:51.203Z,8.88
2022-12-07T15:05:19.564Z,8.98
2022-12-07T15:07:48.297Z,12.88
2022-12-07T15:10:30.944Z,9.63
2022-12-07T15:13:21.765Z,9.50
2022-12-07T15:15:51.419Z,9.82
2022-12-07T15:18:19.302Z,7.93
2022-12-07T15:20:47.246Z,7.75
2022-12-07T15:23:14.541Z,9.10
2022-12-07T15:25:46.655Z,9.10
2022-12-07T15:28:14.377Z,9.40
2022-12-07T15:30:44.216Z,11.48
2022-12-07T15:33:12.378Z,10.13
2022-12-07T15:35:44.424Z,8.38
2022-12-07T15:38:12.114Z,9.35
2022-12-07T15:40:39.309Z,9.43
2022-12-07T15:43:28.741Z,8.65
2022-12-07T15:45:55.593Z,8.35
2022-12-07T15:48:30.026Z,8.00
2022-12-07T15:51:09.013Z,9.60
2022-12-07T15:53:37.155Z,12.05
2022-12-07T15:56:08.740Z,10.95
2022-12-07T15:58:36.164Z,7.88
2022-12-07T16:01:19.526Z,9.55
2022-12-07T16:03:47.273Z,9.57
2022-12-07T16:06:17.923Z,9.63
2022-12-07T16:08:48.241Z,9.18
2022-12-07T16:11:15.170Z,8.65
2022-12-07T16:13:42.010Z,9.38
2022-12-07T16:16:16.832Z,7.80
2022-12-07T16:18:45.930Z,7.95
2022-12-07T16:21:13.916Z,9.48
2022-12-07T16:23:41.453Z,8.82
2022-12-07T16:26:17.905Z,8.93
2022-12-07T16:28:45.433Z,8.50
2022-12-07T16:31:15.952Z,9.73
2022-12-07T16:33:44.779Z,10.20
2022-12-07T16:36:14.362Z,9.48
2022-12-07T16:38:41.275Z,10.10
2022-12-07T16:41:09.113Z,9.07
2022-12-07T16:43:36.336Z,11.63
2022-12-07T16:46:05.084Z,12.55
2022-12-07T16:48:32.373Z,13.45
2022-12-07T16:51:05.953Z,10.00
2022-12-07T16:53:32.734Z,14.00
2022-12-07T16:55:59.522Z,9.70
2022-12-07T16:58:26.307Z,9.23
2022-12-07T17:00:53.226Z,7.30
2022-12-07T17:03:20.935Z,7.78
2022-12-07T17:05:49.710Z,9.95
2022-12-07T17:08:16.678Z,7.47
2022-12-07T17:10:46.457Z,8.80
2022-12-07T17:13:32.347Z,5.90
2022-12-07T17:16:05.851Z,5.60
2022-12-07T17:18:36.628Z,5.60
2022-12-07T17:21:06.601Z,5.10
2022-12-07T17:23:34.904Z,7.57
2022-12-07T17:26:08.354Z,6.22
2022-12-07T17:28:35.995Z,6.70
2022-12-07T17:31:07.909Z,6.57
2022-12-07T17:33:36.149Z,4.80
2022-12-07T17:36:21.679Z,13.25
2022-12-07T17:38:49.644Z,6.30
2022-12-07T17:41:43.367Z,5.68
2022-12-07T17:44:13.621Z,5.38
2022-12-07T17:46:41.201Z,6.88
2022-12-07T17:49:08.641Z,6.30
2022-12-07T17:51:54.781Z,6.07
2022-12-07T17:54:21.872Z,6.78
2022-12-07T17:56:48.911Z,5.68
2022-12-07T17:59:16.267Z,5.25
2022-12-07T18:01:44.220Z,5.88
2022-12-07T18:04:11.071Z,4.90
2022-12-07T18:06:38.685Z,5.35
2022-12-07T18:09:05.595Z,6.10
2022-12-07T18:11:32.979Z,3.55
2022-12-07T18:14:00.093Z,5.78
2022-12-07T18:16:30.220Z,4.78
2022-12-07T18:19:02.661Z,4.82
2022-12-07T18:21:31.440Z,4.30
2022-12-07T18:24:03.126Z,6.07
2022-12-07T18:26:32.825Z,5.95
2022-12-07T18:29:01.074Z,5.00
2022-12-07T18:31:29.402Z,6.63
2022-12-07T18:33:58.370Z,5.90
2022-12-07T18:36:25.149Z,6.00
2022-12-07T18:38:52.338Z,6.03
2022-12-07T18:41:20.447Z,5.05
2022-12-07T18:43:47.551Z,6.00
2022-12-07T18:46:17.914Z,6.90
2022-12-07T18:48:45.342Z,7.20
2022-12-07T18:51:14.907Z,6.25
2022-12-07T18:53:41.851Z,5.88
2022-12-07T18:56:22.261Z,5.57
2022-12-07T18:59:10.717Z,7.22
2022-12-07T19:01:38.404Z,6.10
2022-12-07T19:04:06.076Z,5.80
2022-12-07T19:06:33.125Z,4.90
2022-12-07T19:09:00.457Z,6.30
2022-12-07T19:11:49.111Z,4.85
2022-12-07T19:14:48.482Z,4.45
2022-12-07T19:17:15.363Z,5.97
2022-12-07T19:19:47.439Z,5.47
2022-12-07T19:22:20.820Z,8.13
2022-12-07T19:24:51.896Z,6.70
2022-12-07T19:27:19.954Z,6.60
2022-12-07T19:29:47.390Z,7.53
2022-12-07T19:32:16.260Z,6.03
2022-12-07T19:34:45.891Z,5.43
2022-12-07T19:37:13.940Z,6.97
2022-12-07T19:39:41.709Z,6.38
2022-12-07T19:42:08.894Z,7.95
2022-12-07T19:44:37.308Z,7.70
2022-12-07T19:47:05.684Z,8.18
2022-12-07T19:49:35.624Z,7.78
2022-12-07T19:52:07.195Z,11.32
2022-12-07T19:54:35.438Z,11.02
2022-12-07T19:57:04.356Z,8.93
2022-12-07T19:59:31.905Z,8.57
2022-12-07T20:01:58.789Z,7.70
2022-12-07T20:04:30.320Z,8.10
2022-12-07T20:06:59.933Z,8.18
2022-12-07T20:09:27.759Z,6.32
2022-12-07T20:12:13.197Z,6.80
2022-12-07T20:14:39.982Z,7.75
2022-12-07T20:17:07.265Z,8.57
2022-12-07T20:19:37.630Z,6.85
2022-12-07T20:22:05.626Z,6.10
2022-12-07T20:24:34.613Z,8.07
2022-12-07T20:27:01.968Z,6.57
2022-12-07T20:29:28.842Z,6.63
2022-12-07T20:31:56.415Z,7.53
2022-12-07T20:34:23.387Z,6.90
2022-12-07T20:36:50.236Z,6.43
2022-12-07T20:39:17.628Z,6.68
2022-12-07T20:42:02.795Z,7.03
2022-12-07T20:44:29.905Z,8.25
2022-12-07T20:46:56.735Z,7.20
2022-12-07T20:49:23.472Z,6.25
2022-12-07T20:51:51.486Z,7.10
2022-12-07T20:54:18.963Z,8.10
2022-12-07T20:56:45.910Z,6.22
2022-12-07T20:59:15.684Z,7.68
2022-12-07T21:01:43.919Z,9.32
2022-12-07T21:04:12.560Z,8.85
2022-12-07T21:06:39.457Z,9.02
2022-12-07T21:09:06.284Z,8.35
2022-12-07T21:11:33.219Z,9.77
2022-12-07T21:14:00.031Z,9.90
2022-12-07T21:16:30.955Z,10.40
2022-12-07T21:19:04.699Z,9.60
2022-12-07T21:21:33.220Z,9.25
2022-12-07T21:24:03.419Z,11.00
2022-12-07T21:26:35.925Z,10.50
2022-12-07T21:29:06.136Z,9.70
2022-12-07T21:31:34.300Z,12.95
2022-12-07T21:34:04.885Z,12.32
2022-12-07T21:36:33.623Z,10.23
2022-12-07T21:39:00.638Z,9.93
2022-12-07T21:41:34.385Z,8.98
2022-12-07T21:44:02.887Z,10.80
2022-12-07T21:46:34.107Z,9.80
2022-12-07T21:49:11.367Z,10.65
2022-12-07T21:51:39.741Z,9.50
2022-12-07T21:54:07.155Z,7.85
2022-12-07T21:56:40.771Z,8.05
2022-12-07T21:59:17.908Z,10.80
2022-12-07T22:01:47.246Z,8.95
2022-12-07T22:04:18.496Z,6.82
2022-12-07T22:06:47.992Z,8.75
2022-12-07T22:09:15.537Z,10.93
2022-12-07T22:11:42.302Z,15.00
2022-12-07T22:14:28.823Z,10.95
2022-12-07T22:16:57.593Z,10.98
2022-12-07T22:19:24.985Z,11.10
2022-12-07T22:21:51.913Z,9.60
2022-12-07T22:24:18.727Z,8.27
2022-12-07T22:26:45.693Z,11.40
2022-12-07T22:29:13.249Z,10.77
2022-12-07T22:31:41.104Z,8.35
2022-12-07T22:34:14.570Z,10.85
2022-12-07T22:36:41.361Z,11.57
2022-12-07T22:39:09.456Z,9.25
2022-12-07T22:41:36.625Z,6.82
2022-12-07T22:44:07.372Z,9.60
2022-12-07T22:46:34.609Z,11.30
2022-12-07T22:49:01.729Z,10.48
2022-12-07T22:51:32.114Z,10.68
2022-12-07T22:54:01.612Z,9.18
2022-12-07T22:56:31.106Z,10.70
2022-12-07T22:58:58.148Z,10.32
2022-12-07T23:01:24.950Z,10.07
2022-12-07T23:03:52.481Z,9.20
2022-12-07T23:06:25.484Z,9.93
2022-12-07T23:08:53.193Z,9.93
2022-12-07T23:11:45.834Z,15.68
2022-12-07T23:14:18.062Z,9.77
2022-12-07T23:16:45.665Z,12.63
2022-12-07T23:19:13.121Z,12.52
2022-12-07T23:21:41.024Z,9.73
2022-12-07T23:24:09.239Z,11.27
2022-12-07T23:26:36.027Z,10.55
2022-12-07T23:29:02.864Z,9.20
2022-12-07T23:31:29.778Z,10.75
2022-12-07T23:33:56.578Z,10.55
2022-12-07T23:36:26.060Z,11.52
2022-12-07T23:38:55.193Z,11.18
2022-12-07T23:41:30.455Z,10.65
2022-12-07T23:43:59.937Z,9.75
2022-12-07T23:46:30.985Z,10.55
2022-12-07T23:49:01.171Z,10.18
2022-12-07T23:51:28.132Z,9.95
2022-12-07T23:53:55.278Z,10.35
2022-12-07T23:56:26.093Z,8.10
2022-12-07T23:58:54.273Z,10.10
